sensor_id;sensor_type;location;lat;lon;timestamp;temperature;humidity
35085;SHT85;21267;51.032;6.998;2023-11-19T00:00:53;9.71;99.80
35085;SHT85;21267;51.032;6.998;2023-11-19T00:03:21;9.73;99.82
35085;SHT85;21267;51.032;6.998;2023-11-19T00:05:50;9.73;99.79
35085;SHT85;21267;51.032;6.998;2023-11-19T00:08:23;9.74;99.80
35085;SHT85;21267;51.032;6.998;2023-11-19T00:10:51;9.77;99.76
35085;SHT85;21267;51.032;6.998;2023-11-19T00:13:19;9.75;99.80
35085;SHT85;21267;51.032;6.998;2023-11-19T00:15:48;9.78;99.83
35085;SHT85;21267;51.032;6.998;2023-11-19T00:18:16;9.75;99.81
35085;SHT85;21267;51.032;6.998;2023-11-19T00:20:45;9.82;99.87
35085;SHT85;21267;51.032;6.998;2023-11-19T00:23:21;9.82;99.84
35085;SHT85;21267;51.032;6.998;2023-11-19T00:26:00;9.82;99.86
35085;SHT85;21267;51.032;6.998;2023-11-19T00:28:44;9.85;99.85
35085;SHT85;21267;51.032;6.998;2023-11-19T00:31:31;9.90;99.85
35085;SHT85;21267;51.032;6.998;2023-11-19T00:34:36;9.90;99.82
35085;SHT85;21267;51.032;6.998;2023-11-19T00:40:47;9.97;99.89
35085;SHT85;21267;51.032;6.998;2023-11-19T00:43:38;9.98;99.83
35085;SHT85;21267;51.032;6.998;2023-11-19T00:46:18;9.99;99.88
35085;SHT85;21267;51.032;6.998;2023-11-19T00:48:48;9.99;99.87
35085;SHT85;21267;51.032;6.998;2023-11-19T00:51:21;10.03;99.91
35085;SHT85;21267;51.032;6.998;2023-11-19T00:54:12;10.02;99.87
35085;SHT85;21267;51.032;6.998;2023-11-19T01:01:38;10.03;99.99
35085;SHT85;21267;51.032;6.998;2023-11-19T01:04:17;10.05;99.99
35085;SHT85;21267;51.032;6.998;2023-11-19T01:07:16;10.06;99.99
35085;SHT85;21267;51.032;6.998;2023-11-19T01:10:26;10.05;99.99
35085;SHT85;21267;51.032;6.998;2023-11-19T01:12:59;10.12;99.99
35085;SHT85;21267;51.032;6.998;2023-11-19T01:15:59;10.12;99.99
35085;SHT85;21267;51.032;6.998;2023-11-19T01:18:42;10.13;99.99
35085;SHT85;21267;51.032;6.998;2023-11-19T01:21:42;10.13;99.99
35085;SHT85;21267;51.032;6.998;2023-11-19T01:24:52;10.15;99.99
35085;SHT85;21267;51.032;6.998;2023-11-19T01:27:36;10.19;99.99
35085;SHT85;21267;51.032;6.998;2023-11-19T01:30:17;10.21;99.99
35085;SHT85;21267;51.032;6.998;2023-11-19T01:32:53;10.23;99.99
35085;SHT85;21267;51.032;6.998;2023-11-19T01:35:29;10.29;99.99
35085;SHT85;21267;51.032;6.998;2023-11-19T01:38:10;10.32;99.99
35085;SHT85;21267;51.032;6.998;2023-11-19T01:41:11;10.38;99.99
35085;SHT85;21267;51.032;6.998;2023-11-19T01:43:42;10.40;99.99
35085;SHT85;21267;51.032;6.998;2023-11-19T01:46:09;10.46;99.99
35085;SHT85;21267;51.032;6.998;2023-11-19T01:48:50;10.48;99.99
35085;SHT85;21267;51.032;6.998;2023-11-19T01:51:44;10.56;99.99
35085;SHT85;21267;51.032;6.998;2023-11-19T01:54:18;10.56;99.99
35085;SHT85;21267;51.032;6.998;2023-11-19T01:57:09;10.55;99.99
35085;SHT85;21267;51.032;6.998;2023-11-19T01:59:43;10.67;99.99
35085;SHT85;21267;51.032;6.998;2023-11-19T02:02:11;10.63;99.99
35085;SHT85;21267;51.032;6.998;2023-11-19T02:04:49;10.74;99.99
35085;SHT85;21267;51.032;6.998;2023-11-19T02:07:24;10.77;99.99
35085;SHT85;21267;51.032;6.998;2023-11-19T02:09:51;10.79;99.99
35085;SHT85;21267;51.032;6.998;2023-11-19T02:12:44;10.95;99.99
35085;SHT85;21267;51.032;6.998;2023-11-19T02:15:48;10.97;99.99
35085;SHT85;21267;51.032;6.998;2023-11-19T02:18:24;11.11;99.99
35085;SHT85;21267;51.032;6.998;2023-11-19T02:20:58;11.10;99.99
35085;SHT85;21267;51.032;6.998;2023-11-19T02:23:30;11.27;99.99
35085;SHT85;21267;51.032;6.998;2023-11-19T02:26:06;11.18;99.99
35085;SHT85;21267;51.032;6.998;2023-11-19T02:32:08;11.25;99.99
35085;SHT85;21267;51.032;6.998;2023-11-19T02:34:41;11.24;99.99
35085;SHT85;21267;51.032;6.998;2023-11-19T02:37:08;11.45;99.99
35085;SHT85;21267;51.032;6.998;2023-11-19T02:39:45;11.66;99.99
35085;SHT85;21267;51.032;6.998;2023-11-19T02:42:36;11.62;99.99
35085;SHT85;21267;51.032;6.998;2023-11-19T02:45:03;11.60;99.99
35085;SHT85;21267;51.032;6.998;2023-11-19T02:50:45;11.78;99.99
35085;SHT85;21267;51.032;6.998;2023-11-19T02:53:38;12.01;99.99
35085;SHT85;21267;51.032;6.998;2023-11-19T02:56:07;11.87;99.99
35085;SHT85;21267;51.032;6.998;2023-11-19T02:58:55;11.99;99.99
35085;SHT85;21267;51.032;6.998;2023-11-19T03:01:26;11.82;99.87
35085;SHT85;21267;51.032;6.998;2023-11-19T03:04:41;11.73;99.93
35085;SHT85;21267;51.032;6.998;2023-11-19T03:07:26;11.87;99.88
35085;SHT85;21267;51.032;6.998;2023-11-19T03:10:10;11.76;99.87
35085;SHT85;21267;51.032;6.998;2023-11-19T03:12:44;11.79;99.91
35085;SHT85;21267;51.032;6.998;2023-11-19T03:15:28;11.70;99.90
35085;SHT85;21267;51.032;6.998;2023-11-19T03:18:02;11.71;99.90
35085;SHT85;21267;51.032;6.998;2023-11-19T03:20:42;11.89;99.89
35085;SHT85;21267;51.032;6.998;2023-11-19T03:23:23;11.79;99.77
35085;SHT85;21267;51.032;6.998;2023-11-19T03:26:10;12.16;99.44
35085;SHT85;21267;51.032;6.998;2023-11-19T03:31:50;12.03;99.10
35085;SHT85;21267;51.032;6.998;2023-11-19T03:34:54;12.00;99.08
35085;SHT85;21267;51.032;6.998;2023-11-19T03:37:26;12.10;98.93
35085;SHT85;21267;51.032;6.998;2023-11-19T03:39:57;12.13;98.94
35085;SHT85;21267;51.032;6.998;2023-11-19T03:42:37;12.22;98.63
35085;SHT85;21267;51.032;6.998;2023-11-19T03:45:07;12.48;97.63
35085;SHT85;21267;51.032;6.998;2023-11-19T03:47:37;13.00;95.45
35085;SHT85;21267;51.032;6.998;2023-11-19T03:50:09;13.07;94.10
35085;SHT85;21267;51.032;6.998;2023-11-19T03:52:37;13.10;93.61
35085;SHT85;21267;51.032;6.998;2023-11-19T03:55:07;13.03;93.94
35085;SHT85;21267;51.032;6.998;2023-11-19T03:57:35;13.06;94.15
35085;SHT85;21267;51.032;6.998;2023-11-19T04:00:02;13.03;93.91
35085;SHT85;21267;51.032;6.998;2023-11-19T04:02:37;12.96;94.19
35085;SHT85;21267;51.032;6.998;2023-11-19T04:05:04;12.97;94.18
35085;SHT85;21267;51.032;6.998;2023-11-19T04:07:52;12.92;94.13
35085;SHT85;21267;51.032;6.998;2023-11-19T04:10:25;12.85;94.65
35085;SHT85;21267;51.032;6.998;2023-11-19T04:12:55;12.90;94.56
35085;SHT85;21267;51.032;6.998;2023-11-19T04:15:22;13.03;94.02
35085;SHT85;21267;51.032;6.998;2023-11-19T04:17:49;13.02;93.67
35085;SHT85;21267;51.032;6.998;2023-11-19T04:20:17;13.03;93.67
35085;SHT85;21267;51.032;6.998;2023-11-19T04:22:47;12.96;93.67
35085;SHT85;21267;51.032;6.998;2023-11-19T04:25:14;12.96;93.84
35085;SHT85;21267;51.032;6.998;2023-11-19T04:27:41;13.13;93.04
35085;SHT85;21267;51.032;6.998;2023-11-19T04:30:08;13.00;93.17
35085;SHT85;21267;51.032;6.998;2023-11-19T04:32:40;13.02;93.39
35085;SHT85;21267;51.032;6.998;2023-11-19T04:35:08;12.99;93.68
35085;SHT85;21267;51.032;6.998;2023-11-19T04:37:36;12.99;93.33
35085;SHT85;21267;51.032;6.998;2023-11-19T04:40:05;13.04;92.75
35085;SHT85;21267;51.032;6.998;2023-11-19T04:42:32;12.99;93.10
35085;SHT85;21267;51.032;6.998;2023-11-19T04:45:00;12.99;92.97
35085;SHT85;21267;51.032;6.998;2023-11-19T04:47:33;13.15;92.00
35085;SHT85;21267;51.032;6.998;2023-11-19T04:50:04;13.15;91.95
35085;SHT85;21267;51.032;6.998;2023-11-19T04:52:31;13.10;92.28
35085;SHT85;21267;51.032;6.998;2023-11-19T04:54:58;13.07;92.12
35085;SHT85;21267;51.032;6.998;2023-11-19T04:57:26;13.09;92.12
35085;SHT85;21267;51.032;6.998;2023-11-19T04:59:54;13.02;92.10
35085;SHT85;21267;51.032;6.998;2023-11-19T05:02:26;12.89;92.53
35085;SHT85;21267;51.032;6.998;2023-11-19T05:05:01;13.00;92.15
35085;SHT85;21267;51.032;6.998;2023-11-19T05:07:33;12.92;92.16
35085;SHT85;21267;51.032;6.998;2023-11-19T05:10:05;13.00;91.87
35085;SHT85;21267;51.032;6.998;2023-11-19T05:12:33;13.06;91.94
35085;SHT85;21267;51.032;6.998;2023-11-19T05:15:00;13.06;91.59
35085;SHT85;21267;51.032;6.998;2023-11-19T05:17:34;13.00;91.79
35085;SHT85;21267;51.032;6.998;2023-11-19T05:20:05;12.92;92.12
35085;SHT85;21267;51.032;6.998;2023-11-19T05:22:43;12.88;91.75
35085;SHT85;21267;51.032;6.998;2023-11-19T05:25:10;12.85;91.86
35085;SHT85;21267;51.032;6.998;2023-11-19T05:27:37;12.82;91.75
35085;SHT85;21267;51.032;6.998;2023-11-19T05:30:14;12.85;91.03
35085;SHT85;21267;51.032;6.998;2023-11-19T05:32:42;12.90;90.89
35085;SHT85;21267;51.032;6.998;2023-11-19T05:35:11;12.78;90.52
35085;SHT85;21267;51.032;6.998;2023-11-19T05:37:38;12.99;89.33
35085;SHT85;21267;51.032;6.998;2023-11-19T05:40:06;12.86;89.52
35085;SHT85;21267;51.032;6.998;2023-11-19T05:42:51;12.90;89.07
35085;SHT85;21267;51.032;6.998;2023-11-19T05:45:20;12.80;89.60
35085;SHT85;21267;51.032;6.998;2023-11-19T05:47:49;12.85;89.24
35085;SHT85;21267;51.032;6.998;2023-11-19T05:50:16;12.65;89.78
35085;SHT85;21267;51.032;6.998;2023-11-19T05:52:44;12.64;89.72
35085;SHT85;21267;51.032;6.998;2023-11-19T05:55:11;12.62;89.90
35085;SHT85;21267;51.032;6.998;2023-11-19T05:57:41;12.64;89.87
35085;SHT85;21267;51.032;6.998;2023-11-19T06:00:12;12.73;89.42
35085;SHT85;21267;51.032;6.998;2023-11-19T06:02:51;12.57;89.88
35085;SHT85;21267;51.032;6.998;2023-11-19T06:05:18;12.68;89.52
35085;SHT85;21267;51.032;6.998;2023-11-19T06:07:46;12.73;88.73
35085;SHT85;21267;51.032;6.998;2023-11-19T06:10:16;12.68;88.96
35085;SHT85;21267;51.032;6.998;2023-11-19T06:12:47;12.66;88.71
35085;SHT85;21267;51.032;6.998;2023-11-19T06:15:14;12.62;88.90
35085;SHT85;21267;51.032;6.998;2023-11-19T06:17:44;12.64;88.62
35085;SHT85;21267;51.032;6.998;2023-11-19T06:20:13;12.66;88.63
35085;SHT85;21267;51.032;6.998;2023-11-19T06:22:40;12.72;88.28
35085;SHT85;21267;51.032;6.998;2023-11-19T06:25:13;12.58;88.84
35085;SHT85;21267;51.032;6.998;2023-11-19T06:27:42;12.59;88.97
35085;SHT85;21267;51.032;6.998;2023-11-19T06:30:10;12.73;87.91
35085;SHT85;21267;51.032;6.998;2023-11-19T06:32:41;12.58;88.48
35085;SHT85;21267;51.032;6.998;2023-11-19T06:35:12;12.59;88.05
35085;SHT85;21267;51.032;6.998;2023-11-19T06:37:41;12.59;87.87
35085;SHT85;21267;51.032;6.998;2023-11-19T06:40:08;12.62;87.72
35085;SHT85;21267;51.032;6.998;2023-11-19T06:42:36;12.61;87.52
35085;SHT85;21267;51.032;6.998;2023-11-19T06:45:03;12.59;87.72
35085;SHT85;21267;51.032;6.998;2023-11-19T06:47:30;12.66;86.94
35085;SHT85;21267;51.032;6.998;2023-11-19T06:49:58;12.57;87.58
35085;SHT85;21267;51.032;6.998;2023-11-19T06:52:28;12.34;88.36
35085;SHT85;21267;51.032;6.998;2023-11-19T06:54:55;12.37;88.08
35085;SHT85;21267;51.032;6.998;2023-11-19T06:57:34;12.45;87.91
35085;SHT85;21267;51.032;6.998;2023-11-19T07:00:06;12.41;87.69
35085;SHT85;21267;51.032;6.998;2023-11-19T07:02:34;12.39;87.83
35085;SHT85;21267;51.032;6.998;2023-11-19T07:05:39;12.47;87.31
35085;SHT85;21267;51.032;6.998;2023-11-19T07:08:10;12.31;88.10
35085;SHT85;21267;51.032;6.998;2023-11-19T07:10:38;12.39;87.50
35085;SHT85;21267;51.032;6.998;2023-11-19T07:13:05;12.38;87.48
35085;SHT85;21267;51.032;6.998;2023-11-19T07:15:33;12.51;86.90
35085;SHT85;21267;51.032;6.998;2023-11-19T07:18:03;12.49;86.79
35085;SHT85;21267;51.032;6.998;2023-11-19T07:20:35;12.44;86.65
35085;SHT85;21267;51.032;6.998;2023-11-19T07:23:02;12.37;87.17
35085;SHT85;21267;51.032;6.998;2023-11-19T07:25:29;12.45;86.73
35085;SHT85;21267;51.032;6.998;2023-11-19T07:27:56;12.45;86.70
35085;SHT85;21267;51.032;6.998;2023-11-19T07:33:41;12.41;87.10
35085;SHT85;21267;51.032;6.998;2023-11-19T07:36:10;12.51;87.09
35085;SHT85;21267;51.032;6.998;2023-11-19T07:38:37;12.62;86.74
35085;SHT85;21267;51.032;6.998;2023-11-19T07:41:06;12.75;86.13
35085;SHT85;21267;51.032;6.998;2023-11-19T07:43:35;12.78;86.07
35085;SHT85;21267;51.032;6.998;2023-11-19T07:46:09;12.88;85.44
35085;SHT85;21267;51.032;6.998;2023-11-19T07:48:37;12.95;84.96
35085;SHT85;21267;51.032;6.998;2023-11-19T07:51:04;12.96;85.15
35085;SHT85;21267;51.032;6.998;2023-11-19T07:53:32;12.72;85.49
35085;SHT85;21267;51.032;6.998;2023-11-19T07:56:00;12.93;84.64
35085;SHT85;21267;51.032;6.998;2023-11-19T07:58:28;12.85;84.78
35085;SHT85;21267;51.032;6.998;2023-11-19T08:00:55;12.66;85.16
35085;SHT85;21267;51.032;6.998;2023-11-19T08:03:22;12.72;85.18
35085;SHT85;21267;51.032;6.998;2023-11-19T08:05:56;12.82;84.43
35085;SHT85;21267;51.032;6.998;2023-11-19T08:08:26;13.09;84.02
35085;SHT85;21267;51.032;6.998;2023-11-19T08:10:59;13.28;83.23
35085;SHT85;21267;51.032;6.998;2023-11-19T08:13:26;13.54;82.53
35085;SHT85;21267;51.032;6.998;2023-11-19T08:15:54;13.57;82.10
35085;SHT85;21267;51.032;6.998;2023-11-19T08:18:21;13.67;82.41
35085;SHT85;21267;51.032;6.998;2023-11-19T08:20:48;13.78;82.02
35085;SHT85;21267;51.032;6.998;2023-11-19T08:23:20;14.10;81.55
35085;SHT85;21267;51.032;6.998;2023-11-19T08:25:47;14.15;80.92
35085;SHT85;21267;51.032;6.998;2023-11-19T08:28:14;13.98;81.43
35085;SHT85;21267;51.032;6.998;2023-11-19T08:30:41;13.94;81.41
35085;SHT85;21267;51.032;6.998;2023-11-19T08:33:08;13.98;81.23
35085;SHT85;21267;51.032;6.998;2023-11-19T08:35:35;13.86;81.85
35085;SHT85;21267;51.032;6.998;2023-11-19T08:38:02;13.59;82.74
35085;SHT85;21267;51.032;6.998;2023-11-19T08:40:29;13.62;82.38
35085;SHT85;21267;51.032;6.998;2023-11-19T08:42:58;13.69;82.48
35085;SHT85;21267;51.032;6.998;2023-11-19T08:45:25;13.59;82.72
35085;SHT85;21267;51.032;6.998;2023-11-19T08:47:52;13.64;82.76
35085;SHT85;21267;51.032;6.998;2023-11-19T08:50:19;14.04;80.95
35085;SHT85;21267;51.032;6.998;2023-11-19T08:52:46;14.33;80.45
35085;SHT85;21267;51.032;6.998;2023-11-19T08:55:16;14.43;80.48
35085;SHT85;21267;51.032;6.998;2023-11-19T08:57:43;14.70;79.37
35085;SHT85;21267;51.032;6.998;2023-11-19T09:00:10;14.52;78.95
35085;SHT85;21267;51.032;6.998;2023-11-19T09:02:43;14.17;79.90
35085;SHT85;21267;51.032;6.998;2023-11-19T09:05:10;14.50;79.50
35085;SHT85;21267;51.032;6.998;2023-11-19T09:07:38;14.74;78.86
35085;SHT85;21267;51.032;6.998;2023-11-19T09:10:05;14.85;78.37
35085;SHT85;21267;51.032;6.998;2023-11-19T09:12:32;15.22;77.25
35085;SHT85;21267;51.032;6.998;2023-11-19T09:14:59;14.94;78.14
35085;SHT85;21267;51.032;6.998;2023-11-19T09:17:26;15.09;77.29
35085;SHT85;21267;51.032;6.998;2023-11-19T09:19:53;14.64;77.54
35085;SHT85;21267;51.032;6.998;2023-11-19T09:22:20;14.27;78.48
35085;SHT85;21267;51.032;6.998;2023-11-19T09:24:47;14.10;79.18
35085;SHT85;21267;51.032;6.998;2023-11-19T09:27:15;14.15;79.21
35085;SHT85;21267;51.032;6.998;2023-11-19T09:29:42;14.09;79.31
35085;SHT85;21267;51.032;6.998;2023-11-19T09:32:10;13.85;80.02
35085;SHT85;21267;51.032;6.998;2023-11-19T09:34:36;13.98;80.15
35085;SHT85;21267;51.032;6.998;2023-11-19T09:37:03;14.17;79.67
35085;SHT85;21267;51.032;6.998;2023-11-19T09:39:47;14.23;79.11
35085;SHT85;21267;51.032;6.998;2023-11-19T09:42:14;14.85;77.62
35085;SHT85;21267;51.032;6.998;2023-11-19T09:44:42;14.89;77.42
35085;SHT85;21267;51.032;6.998;2023-11-19T09:47:11;14.68;77.48
35085;SHT85;21267;51.032;6.998;2023-11-19T09:49:39;14.33;78.52
35085;SHT85;21267;51.032;6.998;2023-11-19T09:52:06;14.23;78.63
35085;SHT85;21267;51.032;6.998;2023-11-19T09:54:33;14.08;79.42
35085;SHT85;21267;51.032;6.998;2023-11-19T09:57:02;14.02;79.10
35085;SHT85;21267;51.032;6.998;2023-11-19T09:59:33;13.86;79.68
35085;SHT85;21267;51.032;6.998;2023-11-19T10:02:00;13.82;80.30
35085;SHT85;21267;51.032;6.998;2023-11-19T10:04:29;13.86;79.85
35085;SHT85;21267;51.032;6.998;2023-11-19T10:06:57;13.92;79.58
35085;SHT85;21267;51.032;6.998;2023-11-19T10:09:24;14.02;78.93
35085;SHT85;21267;51.032;6.998;2023-11-19T10:11:51;14.30;78.54
35085;SHT85;21267;51.032;6.998;2023-11-19T10:14:22;14.47;77.92
35085;SHT85;21267;51.032;6.998;2023-11-19T10:16:50;14.64;77.38
35085;SHT85;21267;51.032;6.998;2023-11-19T10:19:20;14.46;77.83
35085;SHT85;21267;51.032;6.998;2023-11-19T10:21:47;14.89;77.61
35085;SHT85;21267;51.032;6.998;2023-11-19T10:24:14;15.29;75.57
35085;SHT85;21267;51.032;6.998;2023-11-19T10:26:56;15.09;75.12
35085;SHT85;21267;51.032;6.998;2023-11-19T10:29:25;14.84;76.73
35085;SHT85;21267;51.032;6.998;2023-11-19T10:31:56;14.70;77.29
35085;SHT85;21267;51.032;6.998;2023-11-19T10:34:43;14.47;77.88
35085;SHT85;21267;51.032;6.998;2023-11-19T10:37:29;14.36;78.10
35085;SHT85;21267;51.032;6.998;2023-11-19T10:39:58;14.36;78.59
35085;SHT85;21267;51.032;6.998;2023-11-19T10:42:25;14.20;78.28
35085;SHT85;21267;51.032;6.998;2023-11-19T10:44:52;14.09;78.41
35085;SHT85;21267;51.032;6.998;2023-11-19T10:47:19;14.13;78.35
35085;SHT85;21267;51.032;6.998;2023-11-19T10:50:04;14.20;78.36
35085;SHT85;21267;51.032;6.998;2023-11-19T10:52:33;14.67;77.04
35085;SHT85;21267;51.032;6.998;2023-11-19T10:55:02;14.68;77.35
35085;SHT85;21267;51.032;6.998;2023-11-19T10:57:35;14.53;77.23
35085;SHT85;21267;51.032;6.998;2023-11-19T11:00:04;14.47;77.20
35085;SHT85;21267;51.032;6.998;2023-11-19T11:02:41;14.46;77.20
35085;SHT85;21267;51.032;6.998;2023-11-19T11:05:12;14.41;77.12
35085;SHT85;21267;51.032;6.998;2023-11-19T11:07:40;14.38;77.06
35085;SHT85;21267;51.032;6.998;2023-11-19T11:10:08;14.27;77.00
35085;SHT85;21267;51.032;6.998;2023-11-19T11:12:37;14.20;77.07
35085;SHT85;21267;51.032;6.998;2023-11-19T11:15:11;14.19;76.75
35085;SHT85;21267;51.032;6.998;2023-11-19T11:17:41;14.02;77.46
35085;SHT85;21267;51.032;6.998;2023-11-19T11:20:09;14.09;77.67
35085;SHT85;21267;51.032;6.998;2023-11-19T11:22:49;14.01;78.25
35085;SHT85;21267;51.032;6.998;2023-11-19T11:30:46;14.32;78.34
35085;SHT85;21267;51.032;6.998;2023-11-19T11:36:31;14.60;76.28
35085;SHT85;21267;51.032;6.998;2023-11-19T11:39:05;14.52;76.66
35085;SHT85;21267;51.032;6.998;2023-11-19T11:41:34;14.38;77.58
35085;SHT85;21267;51.032;6.998;2023-11-19T11:44:01;14.54;77.33
35085;SHT85;21267;51.032;6.998;2023-11-19T11:49:05;14.99;75.53
35085;SHT85;21267;51.032;6.998;2023-11-19T11:54:10;15.56;72.59
35085;SHT85;21267;51.032;6.998;2023-11-19T11:56:38;15.59;73.22
35085;SHT85;21267;51.032;6.998;2023-11-19T11:59:18;15.43;73.09
35085;SHT85;21267;51.032;6.998;2023-11-19T12:01:59;15.26;73.39
35085;SHT85;21267;51.032;6.998;2023-11-19T12:04:27;15.50;72.43
35085;SHT85;21267;51.032;6.998;2023-11-19T12:07:08;15.21;73.12
35085;SHT85;21267;51.032;6.998;2023-11-19T12:09:42;14.95;73.24
35085;SHT85;21267;51.032;6.998;2023-11-19T12:15:03;14.91;73.83
35085;SHT85;21267;51.032;6.998;2023-11-19T12:20:04;14.71;74.98
35085;SHT85;21267;51.032;6.998;2023-11-19T12:22:39;14.70;75.06
35085;SHT85;21267;51.032;6.998;2023-11-19T12:25:07;14.80;75.21
35085;SHT85;21267;51.032;6.998;2023-11-19T12:27:43;14.75;75.59
35085;SHT85;21267;51.032;6.998;2023-11-19T12:30:10;14.49;76.07
35085;SHT85;21267;51.032;6.998;2023-11-19T12:32:45;14.38;76.61
35085;SHT85;21267;51.032;6.998;2023-11-19T12:35:12;14.34;76.64
35085;SHT85;21267;51.032;6.998;2023-11-19T12:37:46;14.27;76.79
35085;SHT85;21267;51.032;6.998;2023-11-19T12:40:17;14.40;76.55
35085;SHT85;21267;51.032;6.998;2023-11-19T12:42:46;14.34;76.87
35085;SHT85;21267;51.032;6.998;2023-11-19T12:45:14;14.30;76.94
35085;SHT85;21267;51.032;6.998;2023-11-19T12:47:43;14.27;76.99
35085;SHT85;21267;51.032;6.998;2023-11-19T12:50:10;14.25;77.45
35085;SHT85;21267;51.032;6.998;2023-11-19T12:52:37;14.34;77.20
35085;SHT85;21267;51.032;6.998;2023-11-19T12:55:23;14.26;77.39
35085;SHT85;21267;51.032;6.998;2023-11-19T12:57:56;14.25;77.32
35085;SHT85;21267;51.032;6.998;2023-11-19T13:00:24;14.17;77.15
35085;SHT85;21267;51.032;6.998;2023-11-19T13:02:56;14.20;77.56
35085;SHT85;21267;51.032;6.998;2023-11-19T13:05:32;14.26;77.43
35085;SHT85;21267;51.032;6.998;2023-11-19T13:08:04;14.29;77.48
35085;SHT85;21267;51.032;6.998;2023-11-19T13:10:33;14.33;77.53
35085;SHT85;21267;51.032;6.998;2023-11-19T13:13:09;14.32;77.62
35085;SHT85;21267;51.032;6.998;2023-11-19T13:15:36;14.33;77.54
35085;SHT85;21267;51.032;6.998;2023-11-19T13:18:03;14.26;77.85
35085;SHT85;21267;51.032;6.998;2023-11-19T13:20:30;14.32;78.07
35085;SHT85;21267;51.032;6.998;2023-11-19T13:22:59;14.23;78.41
35085;SHT85;21267;51.032;6.998;2023-11-19T13:25:27;14.36;77.87
35085;SHT85;21267;51.032;6.998;2023-11-19T13:27:55;14.30;77.97
35085;SHT85;21267;51.032;6.998;2023-11-19T13:30:22;14.33;77.81
35085;SHT85;21267;51.032;6.998;2023-11-19T13:32:52;14.27;78.00
35085;SHT85;21267;51.032;6.998;2023-11-19T13:35:22;14.19;78.16
35085;SHT85;21267;51.032;6.998;2023-11-19T13:37:50;14.08;78.47
35085;SHT85;21267;51.032;6.998;2023-11-19T13:40:18;14.12;78.51
35085;SHT85;21267;51.032;6.998;2023-11-19T13:42:46;14.25;78.24
35085;SHT85;21267;51.032;6.998;2023-11-19T13:45:14;14.44;77.69
35085;SHT85;21267;51.032;6.998;2023-11-19T13:47:43;14.50;77.36
35085;SHT85;21267;51.032;6.998;2023-11-19T13:50:11;14.41;77.35
35085;SHT85;21267;51.032;6.998;2023-11-19T13:52:41;14.36;77.66
35085;SHT85;21267;51.032;6.998;2023-11-19T13:55:09;14.22;78.01
35085;SHT85;21267;51.032;6.998;2023-11-19T13:57:41;14.20;77.93
35085;SHT85;21267;51.032;6.998;2023-11-19T14:00:12;14.20;77.62
35085;SHT85;21267;51.032;6.998;2023-11-19T14:02:40;14.17;77.67
35085;SHT85;21267;51.032;6.998;2023-11-19T14:05:08;14.12;77.56
35085;SHT85;21267;51.032;6.998;2023-11-19T14:07:36;14.06;77.86
35085;SHT85;21267;51.032;6.998;2023-11-19T14:10:03;14.12;77.67
35085;SHT85;21267;51.032;6.998;2023-11-19T14:12:32;14.09;77.38
35085;SHT85;21267;51.032;6.998;2023-11-19T14:14:59;14.08;77.22
35085;SHT85;21267;51.032;6.998;2023-11-19T14:17:26;14.04;77.15
35085;SHT85;21267;51.032;6.998;2023-11-19T14:19:53;13.96;77.80
35085;SHT85;21267;51.032;6.998;2023-11-19T14:22:20;13.82;78.26
35085;SHT85;21267;51.032;6.998;2023-11-19T14:24:47;13.82;77.93
35085;SHT85;21267;51.032;6.998;2023-11-19T14:27:14;13.84;77.93
35085;SHT85;21267;51.032;6.998;2023-11-19T14:29:43;13.82;77.85
35085;SHT85;21267;51.032;6.998;2023-11-19T14:32:11;13.84;77.83
35085;SHT85;21267;51.032;6.998;2023-11-19T14:34:38;13.85;77.63
35085;SHT85;21267;51.032;6.998;2023-11-19T14:37:05;13.91;77.43
35085;SHT85;21267;51.032;6.998;2023-11-19T14:39:33;13.91;77.53
35085;SHT85;21267;51.032;6.998;2023-11-19T14:42:00;13.92;77.22
35085;SHT85;21267;51.032;6.998;2023-11-19T14:44:31;13.95;76.87
35085;SHT85;21267;51.032;6.998;2023-11-19T14:46:59;13.92;77.00
35085;SHT85;21267;51.032;6.998;2023-11-19T14:49:26;13.95;76.82
35085;SHT85;21267;51.032;6.998;2023-11-19T14:51:54;13.96;76.70
35085;SHT85;21267;51.032;6.998;2023-11-19T14:54:21;14.06;76.31
35085;SHT85;21267;51.032;6.998;2023-11-19T14:56:48;14.17;75.86
35085;SHT85;21267;51.032;6.998;2023-11-19T14:59:18;14.20;75.98
35085;SHT85;21267;51.032;6.998;2023-11-19T15:01:45;14.08;76.17
35085;SHT85;21267;51.032;6.998;2023-11-19T15:04:13;14.04;76.50
35085;SHT85;21267;51.032;6.998;2023-11-19T15:06:40;14.01;76.70
35085;SHT85;21267;51.032;6.998;2023-11-19T15:09:07;13.92;76.80
35085;SHT85;21267;51.032;6.998;2023-11-19T15:11:34;13.88;76.86
35085;SHT85;21267;51.032;6.998;2023-11-19T15:14:01;13.79;77.06
35085;SHT85;21267;51.032;6.998;2023-11-19T15:16:29;13.82;76.93
35085;SHT85;21267;51.032;6.998;2023-11-19T15:19:01;13.75;77.18
35085;SHT85;21267;51.032;6.998;2023-11-19T15:21:31;13.57;78.46
35085;SHT85;21267;51.032;6.998;2023-11-19T15:23:57;13.44;79.60
35085;SHT85;21267;51.032;6.998;2023-11-19T15:26:24;13.44;79.30
35085;SHT85;21267;51.032;6.998;2023-11-19T15:28:52;13.48;79.12
35085;SHT85;21267;51.032;6.998;2023-11-19T15:31:23;13.44;79.40
35085;SHT85;21267;51.032;6.998;2023-11-19T15:33:50;13.28;80.16
35085;SHT85;21267;51.032;6.998;2023-11-19T15:36:17;13.26;80.32
35085;SHT85;21267;51.032;6.998;2023-11-19T15:38:44;13.03;81.81
35085;SHT85;21267;51.032;6.998;2023-11-19T15:41:16;12.73;83.83
35085;SHT85;21267;51.032;6.998;2023-11-19T15:43:43;12.66;83.72
35085;SHT85;21267;51.032;6.998;2023-11-19T15:46:10;12.54;84.65
35085;SHT85;21267;51.032;6.998;2023-11-19T15:48:40;12.45;85.70
35085;SHT85;21267;51.032;6.998;2023-11-19T15:51:07;12.38;85.77
35085;SHT85;21267;51.032;6.998;2023-11-19T15:53:34;12.44;85.64
35085;SHT85;21267;51.032;6.998;2023-11-19T15:56:01;12.47;84.77
35085;SHT85;21267;51.032;6.998;2023-11-19T15:58:28;12.54;84.81
35085;SHT85;21267;51.032;6.998;2023-11-19T16:00:55;12.59;84.72
35085;SHT85;21267;51.032;6.998;2023-11-19T16:03:22;12.57;84.48
35085;SHT85;21267;51.032;6.998;2023-11-19T16:05:49;12.66;84.34
35085;SHT85;21267;51.032;6.998;2023-11-19T16:08:32;12.64;84.22
35085;SHT85;21267;51.032;6.998;2023-11-19T16:10:59;12.72;84.18
35085;SHT85;21267;51.032;6.998;2023-11-19T16:13:26;12.82;83.25
35085;SHT85;21267;51.032;6.998;2023-11-19T16:15:53;12.82;83.32
35085;SHT85;21267;51.032;6.998;2023-11-19T16:18:20;12.89;83.38
35085;SHT85;21267;51.032;6.998;2023-11-19T16:20:47;12.89;83.43
35085;SHT85;21267;51.032;6.998;2023-11-19T16:23:14;12.89;83.06
35085;SHT85;21267;51.032;6.998;2023-11-19T16:25:44;12.92;82.62
35085;SHT85;21267;51.032;6.998;2023-11-19T16:28:11;12.88;83.24
35085;SHT85;21267;51.032;6.998;2023-11-19T16:30:38;12.80;83.86
35085;SHT85;21267;51.032;6.998;2023-11-19T16:33:04;12.72;84.42
35085;SHT85;21267;51.032;6.998;2023-11-19T16:35:42;12.71;84.26
35085;SHT85;21267;51.032;6.998;2023-11-19T16:38:09;12.64;84.09
35085;SHT85;21267;51.032;6.998;2023-11-19T16:40:36;12.71;83.72